sensor_id;sensor_type;location;lat;lon;timestamp;pressure;altitude;pressure_sealevel;temperature;humidity
74633;BME280;63139;52.018;8.552;2023-11-19T00:00:16;99869.59;;;9.18;100.00
74633;BME280;63139;52.018;8.552;2023-11-19T00:02:44;99860.66;;;9.19;100.00
74633;BME280;63139;52.018;8.552;2023-11-19T00:05:14;99868.09;;;9.23;100.00
74633;BME280;63139;52.018;8.552;2023-11-19T00:07:42;99863.44;;;9.25;100.00
74633;BME280;63139;52.018;8.552;2023-11-19T00:10:11;99863.75;;;9.30;100.00
74633;BME280;63139;52.018;8.552;2023-11-19T00:12:43;99862.38;;;9.34;100.00
74633;BME280;63139;52.018;8.552;2023-11-19T00:15:12;99856.75;;;9.38;100.00
74633;BME280;63139;52.018;8.552;2023-11-19T00:17:40;99861.88;;;9.39;100.00
74633;BME280;63139;52.018;8.552;2023-11-19T00:20:11;99870.25;;;9.43;100.00
74633;BME280;63139;52.018;8.552;2023-11-19T00:22:40;99870.25;;;9.43;100.00
74633;BME280;63139;52.018;8.552;2023-11-19T00:25:10;99858.34;;;9.47;100.00
74633;BME280;63139;52.018;8.552;2023-11-19T00:27:38;99856.53;;;9.47;100.00
74633;BME280;63139;52.018;8.552;2023-11-19T00:30:08;99855.34;;;9.50;100.00
74633;BME280;63139;52.018;8.552;2023-11-19T00:32:36;99842.13;;;9.50;100.00
74633;BME280;63139;52.018;8.552;2023-11-19T00:35:06;99846.25;;;9.52;100.00
74633;BME280;63139;52.018;8.552;2023-11-19T00:37:36;99832.88;;;9.54;100.00
74633;BME280;63139;52.018;8.552;2023-11-19T00:40:05;99841.44;;;9.56;100.00
74633;BME280;63139;52.018;8.552;2023-11-19T00:42:34;99823.41;;;9.59;100.00
74633;BME280;63139;52.018;8.552;2023-11-19T00:45:04;99816.13;;;9.61;100.00
74633;BME280;63139;52.018;8.552;2023-11-19T00:47:36;99825.50;;;9.64;100.00
74633;BME280;63139;52.018;8.552;2023-11-19T00:50:05;99814.59;;;9.67;100.00
74633;BME280;63139;52.018;8.552;2023-11-19T00:52:32;99812.59;;;9.69;100.00
74633;BME280;63139;52.018;8.552;2023-11-19T00:55:01;99818.16;;;9.74;100.00
74633;BME280;63139;52.018;8.552;2023-11-19T00:57:29;99824.09;;;9.76;100.00
74633;BME280;63139;52.018;8.552;2023-11-19T00:59:57;99813.78;;;9.81;100.00
74633;BME280;63139;52.018;8.552;2023-11-19T01:02:25;99803.69;;;9.85;100.00
74633;BME280;63139;52.018;8.552;2023-11-19T01:04:54;99797.84;;;9.89;100.00
74633;BME280;63139;52.018;8.552;2023-11-19T01:07:22;99790.56;;;9.91;100.00
74633;BME280;63139;52.018;8.552;2023-11-19T01:09:53;99785.72;;;9.95;100.00
74633;BME280;63139;52.018;8.552;2023-11-19T01:12:20;99784.72;;;9.96;100.00
74633;BME280;63139;52.018;8.552;2023-11-19T01:14:48;99790.66;;;9.98;100.00
74633;BME280;63139;52.018;8.552;2023-11-19T01:17:16;99781.72;;;9.99;100.00
74633;BME280;63139;52.018;8.552;2023-11-19T01:19:44;99778.88;;;10.00;100.00
74633;BME280;63139;52.018;8.552;2023-11-19T01:22:13;99787.63;;;10.01;100.00
74633;BME280;63139;52.018;8.552;2023-11-19T01:24:41;99786.47;;;10.03;100.00
74633;BME280;63139;52.018;8.552;2023-11-19T01:27:08;99787.09;;;10.05;100.00
74633;BME280;63139;52.018;8.552;2023-11-19T01:29:36;99771.06;;;10.07;100.00
74633;BME280;63139;52.018;8.552;2023-11-19T01:32:06;99777.78;;;10.09;100.00
74633;BME280;63139;52.018;8.552;2023-11-19T01:34:33;99775.78;;;10.11;100.00
74633;BME280;63139;52.018;8.552;2023-11-19T01:37:01;99769.13;;;10.16;100.00
74633;BME280;63139;52.018;8.552;2023-11-19T01:39:30;99754.56;;;10.20;100.00
74633;BME280;63139;52.018;8.552;2023-11-19T01:41:58;99760.50;;;10.22;100.00
74633;BME280;63139;52.018;8.552;2023-11-19T01:44:26;99757.31;;;10.26;100.00
74633;BME280;63139;52.018;8.552;2023-11-19T01:46:53;99761.84;;;10.32;100.00
74633;BME280;63139;52.018;8.552;2023-11-19T01:49:23;99753.75;;;10.34;100.00
74633;BME280;63139;52.018;8.552;2023-11-19T01:51:51;99761.31;;;10.37;100.00
74633;BME280;63139;52.018;8.552;2023-11-19T01:54:19;99752.34;;;10.38;100.00
74633;BME280;63139;52.018;8.552;2023-11-19T01:56:48;99749.53;;;10.39;100.00
74633;BME280;63139;52.018;8.552;2023-11-19T01:59:16;99732.66;;;10.40;100.00
74633;BME280;63139;52.018;8.552;2023-11-19T02:01:44;99727.19;;;10.42;100.00
74633;BME280;63139;52.018;8.552;2023-11-19T02:04:12;99726.00;;;10.44;100.00
74633;BME280;63139;52.018;8.552;2023-11-19T02:06:41;99718.06;;;10.44;100.00
74633;BME280;63139;52.018;8.552;2023-11-19T02:09:10;99722.97;;;10.47;100.00
74633;BME280;63139;52.018;8.552;2023-11-19T02:11:39;99726.25;;;10.49;100.00
74633;BME280;63139;52.018;8.552;2023-11-19T02:14:09;99718.94;;;10.52;100.00
74633;BME280;63139;52.018;8.552;2023-11-19T02:16:37;99709.19;;;10.52;100.00
74633;BME280;63139;52.018;8.552;2023-11-19T02:19:05;99703.31;;;10.57;100.00
74633;BME280;63139;52.018;8.552;2023-11-19T02:21:34;99680.13;;;10.59;100.00
74633;BME280;63139;52.018;8.552;2023-11-19T02:24:05;99701.09;;;10.60;100.00
74633;BME280;63139;52.018;8.552;2023-11-19T02:26:39;99715.97;;;10.61;100.00
74633;BME280;63139;52.018;8.552;2023-11-19T02:29:08;99705.03;;;10.64;100.00
74633;BME280;63139;52.018;8.552;2023-11-19T02:31:36;99687.97;;;10.67;100.00
74633;BME280;63139;52.018;8.552;2023-11-19T02:34:04;99691.03;;;10.70;100.00
74633;BME280;63139;52.018;8.552;2023-11-19T02:36:32;99691.69;;;10.72;100.00
74633;BME280;63139;52.018;8.552;2023-11-19T02:39:00;99682.72;;;10.73;100.00
74633;BME280;63139;52.018;8.552;2023-11-19T02:41:28;99684.16;;;10.76;100.00
74633;BME280;63139;52.018;8.552;2023-11-19T02:43:55;99687.25;;;10.79;100.00
74633;BME280;63139;52.018;8.552;2023-11-19T02:46:24;99686.69;;;10.84;100.00
74633;BME280;63139;52.018;8.552;2023-11-19T02:48:52;99677.56;;;10.86;100.00
74633;BME280;63139;52.018;8.552;2023-11-19T02:51:20;99682.44;;;10.89;100.00
74633;BME280;63139;52.018;8.552;2023-11-19T02:53:48;99673.31;;;10.92;100.00
74633;BME280;63139;52.018;8.552;2023-11-19T02:56:16;99671.31;;;10.94;100.00
74633;BME280;63139;52.018;8.552;2023-11-19T02:58:51;99663.78;;;10.98;100.00
74633;BME280;63139;52.018;8.552;2023-11-19T03:01:22;99665.25;;;11.00;100.00
74633;BME280;63139;52.018;8.552;2023-11-19T03:03:59;99668.53;;;11.02;100.00
74633;BME280;63139;52.018;8.552;2023-11-19T03:06:30;99678.94;;;11.04;100.00
74633;BME280;63139;52.018;8.552;2023-11-19T03:08:58;99676.53;;;11.09;100.00
74633;BME280;63139;52.018;8.552;2023-11-19T03:11:25;99666.94;;;11.08;100.00
74633;BME280;63139;52.018;8.552;2023-11-19T03:13:52;99662.09;;;11.11;100.00
74633;BME280;63139;52.018;8.552;2023-11-19T03:16:20;99652.09;;;11.13;100.00
74633;BME280;63139;52.018;8.552;2023-11-19T03:18:48;99644.78;;;11.15;100.00
74633;BME280;63139;52.018;8.552;2023-11-19T03:21:17;99644.41;;;11.18;100.00
74633;BME280;63139;52.018;8.552;2023-11-19T03:23:45;99644.84;;;11.22;100.00
74633;BME280;63139;52.018;8.552;2023-11-19T03:26:13;99633.03;;;11.24;100.00
74633;BME280;63139;52.018;8.552;2023-11-19T03:28:40;99637.75;;;11.29;100.00
74633;BME280;63139;52.018;8.552;2023-11-19T03:31:08;99633.72;;;11.33;100.00
74633;BME280;63139;52.018;8.552;2023-11-19T03:33:36;99639.44;;;11.37;100.00
74633;BME280;63139;52.018;8.552;2023-11-19T03:36:05;99633.53;;;11.41;100.00
74633;BME280;63139;52.018;8.552;2023-11-19T03:38:35;99633.16;;;11.44;100.00
74633;BME280;63139;52.018;8.552;2023-11-19T03:41:10;99632.78;;;11.47;100.00
74633;BME280;63139;52.018;8.552;2023-11-19T03:43:38;99628.09;;;11.49;100.00
74633;BME280;63139;52.018;8.552;2023-11-19T03:46:16;99643.63;;;11.52;100.00
74633;BME280;63139;52.018;8.552;2023-11-19T03:48:44;99632.63;;;11.55;100.00
74633;BME280;63139;52.018;8.552;2023-11-19T03:51:13;99638.53;;;11.57;100.00
74633;BME280;63139;52.018;8.552;2023-11-19T03:53:43;99635.50;;;11.60;100.00
74633;BME280;63139;52.018;8.552;2023-11-19T03:56:11;99637.97;;;11.62;100.00
74633;BME280;63139;52.018;8.552;2023-11-19T03:58:39;99650.00;;;11.64;100.00
74633;BME280;63139;52.018;8.552;2023-11-19T04:01:11;99654.09;;;11.67;100.00
74633;BME280;63139;52.018;8.552;2023-11-19T04:03:39;99646.59;;;11.71;100.00
74633;BME280;63139;52.018;8.552;2023-11-19T04:06:17;99646.19;;;11.74;100.00
74633;BME280;63139;52.018;8.552;2023-11-19T04:08:46;99651.31;;;11.75;100.00
74633;BME280;63139;52.018;8.552;2023-11-19T04:11:14;99661.94;;;11.75;100.00
74633;BME280;63139;52.018;8.552;2023-11-19T04:13:41;99655.22;;;11.79;100.00
74633;BME280;63139;52.018;8.552;2023-11-19T04:16:10;99654.00;;;11.82;100.00
74633;BME280;63139;52.018;8.552;2023-11-19T04:18:38;99663.41;;;11.84;100.00
74633;BME280;63139;52.018;8.552;2023-11-19T04:21:06;99655.88;;;11.88;100.00
74633;BME280;63139;52.018;8.552;2023-11-19T04:23:34;99637.31;;;11.88;100.00
74633;BME280;63139;52.018;8.552;2023-11-19T04:26:04;99639.75;;;11.89;100.00
74633;BME280;63139;52.018;8.552;2023-11-19T04:28:36;99626.31;;;11.91;100.00
74633;BME280;63139;52.018;8.552;2023-11-19T04:31:04;99634.91;;;11.93;100.00
74633;BME280;63139;52.018;8.552;2023-11-19T04:33:32;99636.72;;;11.92;100.00
74633;BME280;63139;52.018;8.552;2023-11-19T04:36:00;99628.53;;;11.94;100.00
74633;BME280;63139;52.018;8.552;2023-11-19T04:38:29;99633.47;;;11.97;100.00
74633;BME280;63139;52.018;8.552;2023-11-19T04:40:57;99641.25;;;11.98;100.00
74633;BME280;63139;52.018;8.552;2023-11-19T04:43:26;99631.84;;;12.02;100.00
74633;BME280;63139;52.018;8.552;2023-11-19T04:45:54;99644.94;;;12.04;100.00
74633;BME280;63139;52.018;8.552;2023-11-19T04:48:21;99639.44;;;12.05;100.00
74633;BME280;63139;52.018;8.552;2023-11-19T04:50:49;99624.31;;;12.06;100.00
74633;BME280;63139;52.018;8.552;2023-11-19T04:53:19;99613.91;;;12.04;100.00
74633;BME280;63139;52.018;8.552;2023-11-19T04:55:46;99622.84;;;11.97;100.00
74633;BME280;63139;52.018;8.552;2023-11-19T04:58:14;99610.19;;;11.92;100.00
74633;BME280;63139;52.018;8.552;2023-11-19T05:00:43;99602.41;;;11.84;100.00
74633;BME280;63139;52.018;8.552;2023-11-19T05:03:11;99602.94;;;11.73;100.00
74633;BME280;63139;52.018;8.552;2023-11-19T05:05:39;99602.28;;;11.64;100.00
74633;BME280;63139;52.018;8.552;2023-11-19T05:08:07;99603.66;;;11.54;100.00
74633;BME280;63139;52.018;8.552;2023-11-19T05:10:35;99607.47;;;11.45;100.00
74633;BME280;63139;52.018;8.552;2023-11-19T05:13:03;99602.78;;;11.40;100.00
74633;BME280;63139;52.018;8.552;2023-11-19T05:15:31;99610.47;;;11.35;100.00
74633;BME280;63139;52.018;8.552;2023-11-19T05:18:01;99612.91;;;11.30;100.00
74633;BME280;63139;52.018;8.552;2023-11-19T05:20:29;99630.81;;;11.28;100.00
74633;BME280;63139;52.018;8.552;2023-11-19T05:22:56;99632.03;;;11.25;100.00
74633;BME280;63139;52.018;8.552;2023-11-19T05:25:26;99638.56;;;11.29;100.00
74633;BME280;63139;52.018;8.552;2023-11-19T05:27:54;99638.56;;;11.29;100.00
74633;BME280;63139;52.018;8.552;2023-11-19T05:30:22;99637.75;;;11.29;100.00
74633;BME280;63139;52.018;8.552;2023-11-19T05:32:49;99640.03;;;11.32;100.00
74633;BME280;63139;52.018;8.552;2023-11-19T05:35:19;99643.69;;;11.31;100.00
74633;BME280;63139;52.018;8.552;2023-11-19T05:37:46;99639.56;;;11.28;100.00
74633;BME280;63139;52.018;8.552;2023-11-19T05:40:14;99634.88;;;11.24;100.00
74633;BME280;63139;52.018;8.552;2023-11-19T05:42:42;99644.19;;;11.20;100.00
74633;BME280;63139;52.018;8.552;2023-11-19T05:45:11;99639.13;;;11.18;100.00
74633;BME280;63139;52.018;8.552;2023-11-19T05:47:39;99633.38;;;11.15;100.00
74633;BME280;63139;52.018;8.552;2023-11-19T05:50:08;99634.78;;;11.11;100.00
74633;BME280;63139;52.018;8.552;2023-11-19T05:52:38;99620.91;;;11.09;100.00
74633;BME280;63139;52.018;8.552;2023-11-19T05:55:06;99630.03;;;11.06;100.00
74633;BME280;63139;52.018;8.552;2023-11-19T05:57:36;99641.84;;;11.04;100.00
74633;BME280;63139;52.018;8.552;2023-11-19T06:00:09;99636.56;;;11.04;100.00
74633;BME280;63139;52.018;8.552;2023-11-19T06:02:39;99629.84;;;11.08;100.00
74633;BME280;63139;52.018;8.552;2023-11-19T06:05:07;99639.50;;;11.15;100.00
74633;BME280;63139;52.018;8.552;2023-11-19T06:07:37;99636.06;;;11.21;100.00
74633;BME280;63139;52.018;8.552;2023-11-19T06:10:06;99631.81;;;11.27;100.00
74633;BME280;63139;52.018;8.552;2023-11-19T06:12:36;99626.13;;;11.30;100.00
74633;BME280;63139;52.018;8.552;2023-11-19T06:15:25;99634.47;;;11.27;100.00
74633;BME280;63139;52.018;8.552;2023-11-19T06:17:54;99634.06;;;11.23;100.00
74633;BME280;63139;52.018;8.552;2023-11-19T06:20:22;99630.13;;;11.19;100.00
74633;BME280;63139;52.018;8.552;2023-11-19T06:22:51;99642.72;;;11.11;100.00
74633;BME280;63139;52.018;8.552;2023-11-19T06:25:19;99639.25;;;11.10;100.00
74633;BME280;63139;52.018;8.552;2023-11-19T06:27:47;99646.56;;;11.08;100.00
74633;BME280;63139;52.018;8.552;2023-11-19T06:30:15;99632.63;;;11.00;100.00
74633;BME280;63139;52.018;8.552;2023-11-19T06:32:43;99631.19;;;10.97;100.00
74633;BME280;63139;52.018;8.552;2023-11-19T06:35:11;99635.59;;;10.90;100.00
74633;BME280;63139;52.018;8.552;2023-11-19T06:37:40;99634.56;;;10.84;100.00
74633;BME280;63139;52.018;8.552;2023-11-19T06:40:10;99636.56;;;10.82;100.00
74633;BME280;63139;52.018;8.552;2023-11-19T06:42:38;99636.81;;;10.87;100.00
74633;BME280;63139;52.018;8.552;2023-11-19T06:45:07;99642.53;;;10.91;100.00
74633;BME280;63139;52.018;8.552;2023-11-19T06:47:35;99648.66;;;10.92;100.00
74633;BME280;63139;52.018;8.552;2023-11-19T06:50:04;99651.59;;;10.97;100.00
74633;BME280;63139;52.018;8.552;2023-11-19T06:52:33;99662.41;;;11.02;100.00
74633;BME280;63139;52.018;8.552;2023-11-19T06:55:01;99663.06;;;11.04;100.00
74633;BME280;63139;52.018;8.552;2023-11-19T06:57:33;99659.56;;;11.03;100.00
74633;BME280;63139;52.018;8.552;2023-11-19T07:00:01;99663.06;;;11.04;100.00
74633;BME280;63139;52.018;8.552;2023-11-19T07:02:32;99669.34;;;11.03;100.00
74633;BME280;63139;52.018;8.552;2023-11-19T07:04:59;99667.13;;;11.06;100.00
74633;BME280;63139;52.018;8.552;2023-11-19T07:07:27;99675.06;;;11.06;100.00
74633;BME280;63139;52.018;8.552;2023-11-19T07:09:55;99678.00;;;11.11;100.00
74633;BME280;63139;52.018;8.552;2023-11-19T07:12:23;99676.41;;;11.17;100.00
74633;BME280;63139;52.018;8.552;2023-11-19T07:14:54;99676.00;;;11.20;100.00
74633;BME280;63139;52.018;8.552;2023-11-19T07:17:22;99673.22;;;11.28;100.00
74633;BME280;63139;52.018;8.552;2023-11-19T07:19:51;99661.41;;;11.31;100.00
74633;BME280;63139;52.018;8.552;2023-11-19T07:22:19;99666.56;;;11.39;100.00
74633;BME280;63139;52.018;8.552;2023-11-19T07:24:46;99671.47;;;11.42;100.00
74633;BME280;63139;52.018;8.552;2023-11-19T07:27:15;99674.19;;;11.48;100.00
74633;BME280;63139;52.018;8.552;2023-11-19T07:29:43;99684.84;;;11.55;100.00
74633;BME280;63139;52.018;8.552;2023-11-19T07:32:12;99668.09;;;11.54;100.00
74633;BME280;63139;52.018;8.552;2023-11-19T07:34:40;99685.06;;;11.60;100.00
74633;BME280;63139;52.018;8.552;2023-11-19T07:37:08;99684.25;;;11.59;100.00
74633;BME280;63139;52.018;8.552;2023-11-19T07:39:35;99676.09;;;11.61;100.00
74633;BME280;63139;52.018;8.552;2023-11-19T07:42:07;99695.88;;;11.65;100.00
74633;BME280;63139;52.018;8.552;2023-11-19T07:44:35;99690.22;;;11.68;100.00
74633;BME280;63139;52.018;8.552;2023-11-19T07:47:04;99693.50;;;11.70;100.00
74633;BME280;63139;52.018;8.552;2023-11-19T07:49:33;99694.50;;;11.69;100.00
74633;BME280;63139;52.018;8.552;2023-11-19T07:52:01;99696.41;;;11.75;100.00
74633;BME280;63139;52.018;8.552;2023-11-19T07:54:29;99693.56;;;11.77;100.00
74633;BME280;63139;52.018;8.552;2023-11-19T07:56:57;99687.84;;;11.80;100.00
74633;BME280;63139;52.018;8.552;2023-11-19T07:59:24;99699.31;;;11.87;100.00
74633;BME280;63139;52.018;8.552;2023-11-19T08:01:52;99687.13;;;11.92;100.00
74633;BME280;63139;52.018;8.552;2023-11-19T08:04:20;99702.34;;;12.18;100.00
74633;BME280;63139;52.018;8.552;2023-11-19T08:06:49;99707.25;;;12.21;100.00
74633;BME280;63139;52.018;8.552;2023-11-19T08:09:19;99715.81;;;12.23;100.00
74633;BME280;63139;52.018;8.552;2023-11-19T08:11:47;99707.66;;;12.25;100.00
74633;BME280;63139;52.018;8.552;2023-11-19T08:14:16;99712.19;;;12.31;100.00
74633;BME280;63139;52.018;8.552;2023-11-19T08:16:44;99717.50;;;12.31;100.00
74633;BME280;63139;52.018;8.552;2023-11-19T08:19:11;99723.88;;;12.36;100.00
74633;BME280;63139;52.018;8.552;2023-11-19T08:21:39;99726.94;;;12.47;100.00
74633;BME280;63139;52.018;8.552;2023-11-19T08:24:08;99722.91;;;12.51;100.00
74633;BME280;63139;52.018;8.552;2023-11-19T08:26:36;99735.00;;;12.73;100.00
74633;BME280;63139;52.018;8.552;2023-11-19T08:29:04;99739.91;;;12.69;100.00
74633;BME280;63139;52.018;8.552;2023-11-19T08:31:32;99738.03;;;12.63;100.00
74633;BME280;63139;52.018;8.552;2023-11-19T08:33:59;99746.84;;;12.70;100.00
74633;BME280;63139;52.018;8.552;2023-11-19T08:36:27;99736.03;;;12.72;100.00
74633;BME280;63139;52.018;8.552;2023-11-19T08:38:55;99734.81;;;12.74;100.00
74633;BME280;63139;52.018;8.552;2023-11-19T08:41:24;99737.25;;;12.76;100.00
74633;BME280;63139;52.018;8.552;2023-11-19T08:43:52;99731.09;;;12.69;100.00
74633;BME280;63139;52.018;8.552;2023-11-19T08:46:20;99738.41;;;12.54;100.00
74633;BME280;63139;52.018;8.552;2023-11-19T08:48:48;99732.28;;;12.53;100.00
74633;BME280;63139;52.018;8.552;2023-11-19T08:51:14;99735.53;;;12.49;100.00
74633;BME280;63139;52.018;8.552;2023-11-19T08:53:42;99739.44;;;12.53;100.00
74633;BME280;63139;52.018;8.552;2023-11-19T08:56:10;99738.81;;;12.44;100.00
74633;BME280;63139;52.018;8.552;2023-11-19T08:58:39;99735.09;;;12.38;100.00
74633;BME280;63139;52.018;8.552;2023-11-19T09:01:07;99749.38;;;12.37;100.00
74633;BME280;63139;52.018;8.552;2023-11-19T09:03:36;99752.63;;;12.33;100.00
74633;BME280;63139;52.018;8.552;2023-11-19T09:06:05;99749.19;;;12.39;100.00
74633;BME280;63139;52.018;8.552;2023-11-19T09:08:32;99754.94;;;12.49;100.00
74633;BME280;63139;52.018;8.552;2023-11-19T09:11:00;99753.78;;;12.58;100.00
74633;BME280;63139;52.018;8.552;2023-11-19T09:13:28;99753.78;;;12.58;100.00
74633;BME280;63139;52.018;8.552;2023-11-19T09:15:57;99754.44;;;12.73;100.00
74633;BME280;63139;52.018;8.552;2023-11-19T09:18:29;99760.78;;;12.79;100.00
74633;BME280;63139;52.018;8.552;2023-11-19T09:20:58;99759.94;;;12.78;100.00
74633;BME280;63139;52.018;8.552;2023-11-19T09:23:26;99760.13;;;12.70;100.00
74633;BME280;63139;52.018;8.552;2023-11-19T09:25:54;99757.28;;;12.72;100.00
74633;BME280;63139;52.018;8.552;2023-11-19T09:28:22;99756.06;;;12.74;100.00
74633;BME280;63139;52.018;8.552;2023-11-19T09:30:50;99751.16;;;12.78;100.00
74633;BME280;63139;52.018;8.552;2023-11-19T09:33:19;99770.19;;;12.81;100.00
74633;BME280;63139;52.018;8.552;2023-11-19T09:35:47;99768.13;;;12.83;100.00
74633;BME280;63139;52.018;8.552;2023-11-19T09:38:17;99763.44;;;12.79;100.00
74633;BME280;63139;52.018;8.552;2023-11-19T09:40:45;99758.72;;;12.74;100.00
74633;BME280;63139;52.018;8.552;2023-11-19T09:43:13;99773.59;;;12.69;100.00
74633;BME280;63139;52.018;8.552;2023-11-19T09:45:48;99766.88;;;12.66;100.00
74633;BME280;63139;52.018;8.552;2023-11-19T09:48:16;99774.41;;;12.69;100.00
74633;BME280;63139;52.018;8.552;2023-11-19T09:50:47;99774.91;;;12.86;100.00
74633;BME280;63139;52.018;8.552;2023-11-19T09:53:15;99781.69;;;13.08;100.00
74633;BME280;63139;52.018;8.552;2023-11-19T09:55:44;99769.69;;;13.32;100.00
74633;BME280;63139;52.018;8.552;2023-11-19T09:58:13;99762.13;;;13.49;100.00
74633;BME280;63139;52.018;8.552;2023-11-19T10:00:42;99762.94;;;13.36;100.00
74633;BME280;63139;52.018;8.552;2023-11-19T10:03:16;99766.00;;;13.27;100.00
74633;BME280;63139;52.018;8.552;2023-11-19T10:05:46;99770.91;;;13.30;100.00
74633;BME280;63139;52.018;8.552;2023-11-19T10:08:14;99761.47;;;13.14;100.00
74633;BME280;63139;52.018;8.552;2023-11-19T10:10:42;99766.41;;;13.17;100.00
74633;BME280;63139;52.018;8.552;2023-11-19T10:13:10;99763.56;;;13.18;100.00
74633;BME280;63139;52.018;8.552;2023-11-19T10:15:39;99762.53;;;13.33;100.00
74633;BME280;63139;52.018;8.552;2023-11-19T10:18:07;99761.09;;;13.50;100.00
74633;BME280;63139;52.018;8.552;2023-11-19T10:20:35;99765.81;;;13.68;100.00
74633;BME280;63139;52.018;8.552;2023-11-19T10:23:05;99764.56;;;13.64;100.00
74633;BME280;63139;52.018;8.552;2023-11-19T10:25:33;99761.28;;;13.81;100.00
74633;BME280;63139;52.018;8.552;2023-11-19T10:28:01;99764.97;;;14.00;100.00
74633;BME280;63139;52.018;8.552;2023-11-19T10:30:30;99757.78;;;14.07;100.00
74633;BME280;63139;52.018;8.552;2023-11-19T10:33:08;99758.34;;;14.16;98.50
74633;BME280;63139;52.018;8.552;2023-11-19T10:35:37;99754.88;;;14.22;96.01
74633;BME280;63139;52.018;8.552;2023-11-19T10:38:29;99767.06;;;14.56;98.21
74633;BME280;63139;52.018;8.552;2023-11-19T10:40:58;99761.75;;;14.49;96.37
74633;BME280;63139;52.018;8.552;2023-11-19T10:43:26;99772.81;;;14.46;99.85
74633;BME280;63139;52.018;8.552;2023-11-19T10:46:08;99767.13;;;14.43;98.22
74633;BME280;63139;52.018;8.552;2023-11-19T10:48:37;99767.94;;;14.36;100.00
74633;BME280;63139;52.018;8.552;2023-11-19T10:51:05;99771.03;;;14.27;100.00
74633;BME280;63139;52.018;8.552;2023-11-19T10:53:36;99768.97;;;14.29;98.80
74633;BME280;63139;52.018;8.552;2023-11-19T10:56:10;99755.63;;;14.35;97.35
74633;BME280;63139;52.018;8.552;2023-11-19T10:58:42;99753.19;;;14.41;97.77
74633;BME280;63139;52.018;8.552;2023-11-19T11:01:16;99757.06;;;14.38;94.40
74633;BME280;63139;52.018;8.552;2023-11-19T11:03:47;99756.72;;;14.15;96.26
74633;BME280;63139;52.018;8.552;2023-11-19T11:06:16;99756.72;;;14.21;97.52
74633;BME280;63139;52.018;8.552;2023-11-19T11:08:46;99742.59;;;14.21;95.26
74633;BME280;63139;52.018;8.552;2023-11-19T11:11:15;99746.44;;;14.25;97.06
74633;BME280;63139;52.018;8.552;2023-11-19T11:13:44;99733.56;;;14.22;96.25
74633;BME280;63139;52.018;8.552;2023-11-19T11:16:13;99741.34;;;14.17;96.32
74633;BME280;63139;52.018;8.552;2023-11-19T11:18:43;99727.69;;;14.07;97.24
74633;BME280;63139;52.018;8.552;2023-11-19T11:21:15;99727.94;;;13.85;98.22
74633;BME280;63139;52.018;8.552;2023-11-19T11:24:12;99727.31;;;13.64;100.00
74633;BME280;63139;52.018;8.552;2023-11-19T11:30:04;99734.31;;;13.38;100.00
74633;BME280;63139;52.018;8.552;2023-11-19T11:32:41;99747.81;;;13.24;100.00
74633;BME280;63139;52.018;8.552;2023-11-19T11:35:22;99743.31;;;13.17;100.00
74633;BME280;63139;52.018;8.552;2023-11-19T11:37:57;99736.75;;;13.13;100.00
74633;BME280;63139;52.018;8.552;2023-11-19T11:40:29;99732.41;;;13.12;100.00
74633;BME280;63139;52.018;8.552;2023-11-19T11:42:58;99722.88;;;13.18;100.00
74633;BME280;63139;52.018;8.552;2023-11-19T11:45:35;99729.00;;;13.32;100.00
74633;BME280;63139;52.018;8.552;2023-11-19T11:48:19;99720.41;;;13.36;100.00
74633;BME280;63139;52.018;8.552;2023-11-19T11:50:51;99724.69;;;13.17;100.00
74633;BME280;63139;52.018;8.552;2023-11-19T11:53:21;99721.78;;;13.12;100.00
74633;BME280;63139;52.018;8.552;2023-11-19T11:55:56;99737.91;;;13.04;100.00
74633;BME280;63139;52.018;8.552;2023-11-19T11:58:35;99748.34;;;12.93;100.00
74633;BME280;63139;52.018;8.552;2023-11-19T12:01:05;99731.56;;;12.79;100.00
74633;BME280;63139;52.018;8.552;2023-11-19T12:03:37;99713.59;;;12.81;100.00
74633;BME280;63139;52.018;8.552;2023-11-19T12:06:06;99730.09;;;12.76;100.00
74633;BME280;63139;52.018;8.552;2023-11-19T12:08:35;99734.78;;;12.68;100.00
74633;BME280;63139;52.018;8.552;2023-11-19T12:11:20;99726.84;;;12.74;100.00
74633;BME280;63139;52.018;8.552;2023-11-19T12:13:55;99722.75;;;12.72;100.00
74633;BME280;63139;52.018;8.552;2023-11-19T12:16:25;99723.97;;;12.82;100.00
74633;BME280;63139;52.018;8.552;2023-11-19T12:18:56;99720.34;;;12.97;100.00
74633;BME280;63139;52.018;8.552;2023-11-19T12:21:27;99727.91;;;13.06;100.00
74633;BME280;63139;52.018;8.552;2023-11-19T12:23:57;99714.66;;;13.19;100.00
74633;BME280;63139;52.018;8.552;2023-11-19T12:26:33;99717.72;;;13.43;100.00
74633;BME280;63139;52.018;8.552;2023-11-19T12:29:01;99715.47;;;13.27;100.00
74633;BME280;63139;52.018;8.552;2023-11-19T12:31:35;99706.28;;;13.23;100.00
74633;BME280;63139;52.018;8.552;2023-11-19T12:34:09;99707.72;;;13.25;100.00
74633;BME280;63139;52.018;8.552;2023-11-19T12:36:40;99692.78;;;13.31;100.00
74633;BME280;63139;52.018;8.552;2023-11-19T12:39:09;99707.94;;;13.30;100.00
74633;BME280;63139;52.018;8.552;2023-11-19T12:41:53;99700.38;;;13.34;100.00
74633;BME280;63139;52.018;8.552;2023-11-19T12:44:22;99695.44;;;13.50;100.00
74633;BME280;63139;52.018;8.552;2023-11-19T12:47:03;99689.28;;;13.56;100.00
74633;BME280;63139;52.018;8.552;2023-11-19T12:49:32;99682.56;;;13.54;100.00
74633;BME280;63139;52.018;8.552;2023-11-19T12:52:00;99681.75;;;13.34;100.00
74633;BME280;63139;52.018;8.552;2023-11-19T12:54:32;99681.75;;;13.20;100.00
74633;BME280;63139;52.018;8.552;2023-11-19T12:57:01;99675.19;;;13.30;100.00
74633;BME280;63139;52.018;8.552;2023-11-19T12:59:29;99679.91;;;13.28;100.00
74633;BME280;63139;52.018;8.552;2023-11-19T13:01:57;99683.19;;;13.23;100.00
74633;BME280;63139;52.018;8.552;2023-11-19T13:04:28;99676.03;;;13.30;100.00
74633;BME280;63139;52.018;8.552;2023-11-19T13:06:57;99686.88;;;13.48;100.00